PWSweather.com
Personal Weather Stations
Station Observations
KAZPHOEN90
RayThunderhill, Phoenix, AZ

RayThunderhillPhoenix, AZ

Lat: 33.312, Lon: -112.029

Elevation: 1260

Station Type: Davis Vantage VUE

Latest ConditionsUpdated 12:45:02 PM MST Sunday, Nov 19, 2017
Currently Today's Max Today's Min Today's Average
Temperature 79.3°F26.3°C 79.3°F26.3°C 61.9°F16.6°C 67.0°F19.4°C
Dew Point 24.2°F-4.3°C 25.1°F-3.8°C 10.4°F-12.0°C 16.1°F-8.8°C
Winds 0.3 mph ESE0.5 kmh ESE 4.2 mph WNW6.8 kmh WNW - 1.9 mph 3.1 kmh
Wind Gusts 2.0 mph3.2 kmh 10.0 mph16.1 kmh - -
Humidity 13% 19% 11% 14%
Pressure 29.92 in1013.2 mb 30.01 in1016.3 mb 29.92 in1013.2 mb -
Hour Temp Dew Point Humidity Winds Wind Gusts Pressure Precip Precip Rate Daily Precip Total
12:45 PM 79.3°F26.3°C 24.2°F-4.3°C 13% 0.3 mph ESE0.5 kmh ESE 2.0 mph3.2 kmh 29.92 in1013.2 mb - 0.00 in0.0 mm 0.00 in0.0 mm
12:30 PM 79.2°F26.2°C 24.1°F-4.4°C 13% 0.7 mph SE1.1 kmh SE 3.0 mph4.8 kmh 29.93 in1013.5 mb - 0.00 in0.0 mm 0.00 in0.0 mm
12:15 PM 78.2°F25.7°C 25.1°F-3.8°C 14% 0.1 mph E0.2 kmh E 2.0 mph3.2 kmh 29.94 in1013.9 mb - 0.00 in0.0 mm 0.00 in0.0 mm
12:00 PM 77.0°F25.0°C 24.1°F-4.4°C 14% 0.8 mph SE1.3 kmh SE 3.0 mph4.8 kmh 29.95 in1014.2 mb - 0.00 in0.0 mm 0.00 in0.0 mm
11:45 AM 76.4°F24.7°C 21.9°F-5.6°C 13% 1.4 mph N2.3 kmh N 3.0 mph4.8 kmh 29.96 in1014.6 mb - 0.00 in0.0 mm 0.00 in0.0 mm
11:30 AM 75.7°F24.3°C 23.1°F-4.9°C 14% 1.5 mph N2.4 kmh N 5.0 mph8.0 kmh 29.98 in1015.2 mb - 0.00 in0.0 mm 0.00 in0.0 mm
11:15 AM 74.8°F23.8°C 22.4°F-5.3°C 14% 2.1 mph N3.4 kmh N 4.0 mph6.4 kmh 29.99 in1015.6 mb - 0.00 in0.0 mm 0.00 in0.0 mm
11:00 AM 74.3°F23.5°C 23.6°F-4.7°C 15% 0.3 mph E0.5 kmh E 1.0 mph1.6 kmh 29.99 in1015.6 mb - 0.00 in0.0 mm 0.00 in0.0 mm
10:45 AM 73.0°F22.8°C 22.6°F-5.2°C 15% 0.8 mph N1.3 kmh N 2.0 mph3.2 kmh 30.00 in1015.9 mb - 0.00 in0.0 mm 0.00 in0.0 mm
10:30 AM 72.0°F22.2°C 21.8°F-5.7°C 15% 1.7 mph E2.7 kmh E 4.0 mph6.4 kmh 30.00 in1015.9 mb - 0.00 in0.0 mm 0.00 in0.0 mm
10:15 AM 70.7°F21.5°C 22.2°F-5.4°C 16% 1.7 mph NW2.7 kmh NW 2.0 mph3.2 kmh 30.01 in1016.3 mb - 0.00 in0.0 mm 0.00 in0.0 mm
10:00 AM 69.5°F20.8°C 21.3°F-5.9°C 16% 1.3 mph WNW2.1 kmh WNW 2.0 mph3.2 kmh 30.01 in1016.3 mb - 0.00 in0.0 mm 0.00 in0.0 mm
09:45 AM 68.4°F20.2°C 20.4°F-6.4°C 16% 1.3 mph N2.1 kmh N 4.0 mph6.4 kmh 30.01 in1016.3 mb - 0.00 in0.0 mm 0.00 in0.0 mm
09:30 AM 67.6°F19.8°C 21.1°F-6.1°C 17% 1.5 mph WSW2.4 kmh WSW 4.0 mph6.4 kmh 30.01 in1016.3 mb - 0.00 in0.0 mm 0.00 in0.0 mm
09:15 AM 66.6°F19.2°C 19.0°F-7.2°C 16% 2.2 mph NNE3.5 kmh NNE 5.0 mph8.0 kmh 30.01 in1016.3 mb - 0.00 in0.0 mm 0.00 in0.0 mm
09:00 AM 65.7°F18.7°C 18.2°F-7.7°C 16% 2.1 mph ESE3.4 kmh ESE 4.0 mph6.4 kmh 30.01 in1016.3 mb - 0.00 in0.0 mm 0.00 in0.0 mm
08:45 AM 64.8°F18.2°C 17.5°F-8.1°C 16% 2.5 mph NE4.0 kmh NE 6.0 mph9.7 kmh 30.01 in1016.3 mb - 0.00 in0.0 mm 0.00 in0.0 mm
08:30 AM 64.0°F17.8°C 16.9°F-8.4°C 16% 1.7 mph N2.7 kmh N 4.0 mph6.4 kmh 30.00 in1015.9 mb - 0.00 in0.0 mm 0.00 in0.0 mm
08:15 AM 63.4°F17.4°C 16.4°F-8.7°C 16% 2.6 mph NNW4.2 kmh NNW 5.0 mph8.0 kmh 30.00 in1015.9 mb - 0.00 in0.0 mm 0.00 in0.0 mm
08:00 AM 62.7°F17.1°C 15.8°F-9.0°C 16% 1.7 mph N2.7 kmh N 6.0 mph9.7 kmh 29.99 in1015.6 mb - 0.00 in0.0 mm 0.00 in0.0 mm
07:45 AM 62.4°F16.9°C 15.6°F-9.1°C 16% 1.2 mph N1.9 kmh N 4.0 mph6.4 kmh 29.99 in1015.6 mb - 0.00 in0.0 mm 0.00 in0.0 mm
07:30 AM 62.8°F17.1°C 15.9°F-8.9°C 16% 0.6 mph NW1.0 kmh NW 2.0 mph3.2 kmh 29.98 in1015.2 mb - 0.00 in0.0 mm 0.00 in0.0 mm
07:15 AM 63.1°F17.3°C 14.6°F-9.7°C 15% 1.6 mph N2.6 kmh N 3.0 mph4.8 kmh 29.98 in1015.2 mb - 0.00 in0.0 mm 0.00 in0.0 mm
07:00 AM 63.5°F17.5°C 15.0°F-9.4°C 15% 1.8 mph NE2.9 kmh NE 6.0 mph9.7 kmh 29.97 in1014.9 mb - 0.00 in0.0 mm 0.00 in0.0 mm
06:45 AM 63.8°F17.7°C 15.2°F-9.3°C 15% 1.6 mph NW2.6 kmh NW 5.0 mph8.0 kmh 29.96 in1014.6 mb - 0.00 in0.0 mm 0.00 in0.0 mm
06:30 AM 64.3°F17.9°C 14.0°F-10.0°C 14% 2.7 mph NW4.3 kmh NW 3.0 mph4.8 kmh 29.96 in1014.6 mb - 0.00 in0.0 mm 0.00 in0.0 mm
06:15 AM 64.3°F17.9°C 14.0°F-10.0°C 14% 3.5 mph N5.6 kmh N 7.0 mph11.3 kmh 29.96 in1014.6 mb - 0.00 in0.0 mm 0.00 in0.0 mm
06:00 AM 64.4°F18.0°C 14.1°F-9.9°C 14% 2.2 mph NW3.5 kmh NW 4.0 mph6.4 kmh 29.96 in1014.6 mb - 0.00 in0.0 mm 0.00 in0.0 mm
05:45 AM 64.5°F18.1°C 14.2°F-9.9°C 14% 1.2 mph N1.9 kmh N 4.0 mph6.4 kmh 29.96 in1014.6 mb - 0.00 in0.0 mm 0.00 in0.0 mm
05:30 AM 64.9°F18.3°C 12.8°F-10.7°C 13% 2.5 mph ENE4.0 kmh ENE 3.0 mph4.8 kmh 29.96 in1014.6 mb - 0.00 in0.0 mm 0.00 in0.0 mm
05:15 AM 64.8°F18.2°C 12.7°F-10.7°C 13% 2.5 mph NNW4.0 kmh NNW 7.0 mph11.3 kmh 29.95 in1014.2 mb - 0.00 in0.0 mm 0.00 in0.0 mm
05:00 AM 64.5°F18.1°C 12.5°F-10.8°C 13% 3.8 mph N6.1 kmh N 8.0 mph12.9 kmh 29.96 in1014.6 mb - 0.00 in0.0 mm 0.00 in0.0 mm
04:45 AM 64.4°F18.0°C 12.4°F-10.9°C 13% 3.7 mph NW6.0 kmh NW 5.0 mph8.0 kmh 29.96 in1014.6 mb - 0.00 in0.0 mm 0.00 in0.0 mm
04:30 AM 64.4°F18.0°C 12.4°F-10.9°C 13% 3.1 mph NW5.0 kmh NW 6.0 mph9.7 kmh 29.95 in1014.2 mb - 0.00 in0.0 mm 0.00 in0.0 mm
04:15 AM 64.5°F18.1°C 10.7°F-11.8°C 12% 3.5 mph N5.6 kmh N 5.0 mph8.0 kmh 29.95 in1014.2 mb - 0.00 in0.0 mm 0.00 in0.0 mm
04:00 AM 64.3°F17.9°C 10.5°F-11.9°C 12% 3.8 mph N6.1 kmh N 6.0 mph9.7 kmh 29.96 in1014.6 mb - 0.00 in0.0 mm 0.00 in0.0 mm
03:45 AM 64.2°F17.9°C 10.5°F-11.9°C 12% 4.2 mph WNW6.8 kmh WNW 5.0 mph8.0 kmh 29.96 in1014.6 mb - 0.00 in0.0 mm 0.00 in0.0 mm
03:30 AM 64.1°F17.8°C 10.4°F-12.0°C 12% 3.9 mph N6.3 kmh N 10.0 mph16.1 kmh 29.96 in1014.6 mb - 0.00 in0.0 mm 0.00 in0.0 mm
03:15 AM 64.3°F17.9°C 10.5°F-11.9°C 12% 3.6 mph NNW5.8 kmh NNW 7.0 mph11.3 kmh 29.97 in1014.9 mb - 0.00 in0.0 mm 0.00 in0.0 mm
03:00 AM 64.2°F17.9°C 10.5°F-11.9°C 12% 2.8 mph NW4.5 kmh NW 8.0 mph12.9 kmh 29.97 in1014.9 mb - 0.00 in0.0 mm 0.00 in0.0 mm
02:45 AM 64.3°F17.9°C 10.5°F-11.9°C 12% 2.8 mph NW4.5 kmh NW 6.0 mph9.7 kmh 29.97 in1014.9 mb - 0.00 in0.0 mm 0.00 in0.0 mm
02:30 AM 64.8°F18.2°C 10.9°F-11.7°C 12% 3.8 mph NW6.1 kmh NW 6.0 mph9.7 kmh 29.97 in1014.9 mb - 0.00 in0.0 mm 0.00 in0.0 mm
02:15 AM 65.0°F18.3°C 11.1°F-11.6°C 12% 3.0 mph NW4.8 kmh NW 4.0 mph6.4 kmh 29.98 in1015.2 mb - 0.00 in0.0 mm 0.00 in0.0 mm
02:00 AM 64.9°F18.3°C 11.0°F-11.7°C 12% 2.6 mph NNW4.2 kmh NNW 5.0 mph8.0 kmh 29.98 in1015.2 mb - 0.00 in0.0 mm 0.00 in0.0 mm
01:45 AM 64.7°F18.2°C 12.7°F-10.7°C 13% Calm Calm 1.0 mph1.6 kmh 29.99 in1015.6 mb - 0.00 in0.0 mm 0.00 in0.0 mm
01:30 AM 61.9°F16.6°C 15.2°F-9.3°C 16% Calm Calm -- 29.99 in1015.6 mb - 0.00 in0.0 mm 0.00 in0.0 mm
01:15 AM 62.0°F16.7°C 19.2°F-7.1°C 19% Calm Calm -- 29.99 in1015.6 mb - 0.00 in0.0 mm 0.00 in0.0 mm
01:00 AM 64.5°F18.1°C 17.3°F-8.2°C 16% Calm Calm -- 29.99 in1015.6 mb - 0.00 in0.0 mm 0.00 in0.0 mm
12:45 AM 67.1°F19.5°C 12.7°F-10.7°C 12% Calm Calm -- 29.99 in1015.6 mb - 0.00 in0.0 mm 0.00 in0.0 mm
12:30 AM 67.3°F19.6°C 12.9°F-10.6°C 12% 0.1 mph NNW0.2 kmh NNW 1.0 mph1.6 kmh 30.00 in1015.9 mb - 0.00 in0.0 mm 0.00 in0.0 mm
12:15 AM 67.4°F19.7°C 11.0°F-11.7°C 11% 2.6 mph NNW4.2 kmh NNW 5.0 mph8.0 kmh 30.00 in1015.9 mb - 0.00 in0.0 mm 0.00 in0.0 mm
12:00 AM 66.7°F19.3°C 10.4°F-12.0°C 11% 2.1 mph N3.4 kmh N 2.0 mph3.2 kmh 30.00 in1015.9 mb - 0.00 in0.0 mm 0.00 in0.0 mm